sensor_id;sensor_type;location;lat;lon;timestamp;temperature;humidity
38936;DHT22;25541;47.458;9.644;2022-11-02T03:46:48;13.40;99.90
38936;DHT22;25541;47.458;9.644;2022-11-02T03:49:17;13.40;99.90
38936;DHT22;25541;47.458;9.644;2022-11-02T03:51:45;13.40;99.90
38936;DHT22;25541;47.458;9.644;2022-11-02T03:56:56;13.50;99.90
38936;DHT22;25541;47.458;9.644;2022-11-02T03:59:24;13.50;99.90
38936;DHT22;25541;47.458;9.644;2022-11-02T04:01:50;13.50;99.90
38936;DHT22;25541;47.458;9.644;2022-11-02T04:04:17;13.40;99.90
38936;DHT22;25541;47.458;9.644;2022-11-02T04:06:43;13.40;99.90
38936;DHT22;25541;47.458;9.644;2022-11-02T04:09:10;13.40;99.90
38936;DHT22;25541;47.458;9.644;2022-11-02T04:11:36;13.40;99.90
38936;DHT22;25541;47.458;9.644;2022-11-02T04:14:21;13.40;99.90
38936;DHT22;25541;47.458;9.644;2022-11-02T04:17:07;13.40;99.90
38936;DHT22;25541;47.458;9.644;2022-11-02T04:19:51;13.40;99.90
38936;DHT22;25541;47.458;9.644;2022-11-02T04:22:17;13.40;99.90
38936;DHT22;25541;47.458;9.644;2022-11-02T04:25:02;13.30;99.90
38936;DHT22;25541;47.458;9.644;2022-11-02T04:27:43;13.40;99.90
38936;DHT22;25541;47.458;9.644;2022-11-02T04:30:10;13.30;99.90
38936;DHT22;25541;47.458;9.644;2022-11-02T04:32:38;13.30;99.90
38936;DHT22;25541;47.458;9.644;2022-11-02T04:35:22;13.40;99.90
38936;DHT22;25541;47.458;9.644;2022-11-02T04:37:48;13.40;99.90
38936;DHT22;25541;47.458;9.644;2022-11-02T04:40:32;13.40;99.90
38936;DHT22;25541;47.458;9.644;2022-11-02T04:42:58;13.40;99.90
38936;DHT22;25541;47.458;9.644;2022-11-02T04:45:23;13.30;99.90
38936;DHT22;25541;47.458;9.644;2022-11-02T04:47:49;13.40;99.90
38936;DHT22;25541;47.458;9.644;2022-11-02T04:50:15;13.50;99.90
38936;DHT22;25541;47.458;9.644;2022-11-02T04:52:40;13.50;99.90
38936;DHT22;25541;47.458;9.644;2022-11-02T04:55:06;13.40;99.90
38936;DHT22;25541;47.458;9.644;2022-11-02T04:57:32;13.40;99.90
38936;DHT22;25541;47.458;9.644;2022-11-02T04:59:58;13.40;99.90
38936;DHT22;25541;47.458;9.644;2022-11-02T05:02:24;13.40;99.90
38936;DHT22;25541;47.458;9.644;2022-11-02T05:04:49;13.40;99.90
38936;DHT22;25541;47.458;9.644;2022-11-02T05:07:15;13.40;99.90
38936;DHT22;25541;47.458;9.644;2022-11-02T05:09:41;13.50;99.90
38936;DHT22;25541;47.458;9.644;2022-11-02T05:12:07;13.40;99.90
38936;DHT22;25541;47.458;9.644;2022-11-02T05:14:33;13.30;99.90
38936;DHT22;25541;47.458;9.644;2022-11-02T05:16:59;13.30;99.90
38936;DHT22;25541;47.458;9.644;2022-11-02T05:19:25;13.30;99.90
38936;DHT22;25541;47.458;9.644;2022-11-02T05:21:50;13.40;99.90
38936;DHT22;25541;47.458;9.644;2022-11-02T05:24:16;13.40;99.90
38936;DHT22;25541;47.458;9.644;2022-11-02T05:26:41;13.40;99.90
38936;DHT22;25541;47.458;9.644;2022-11-02T05:29:08;13.40;99.90
38936;DHT22;25541;47.458;9.644;2022-11-02T05:31:34;13.40;99.90
38936;DHT22;25541;47.458;9.644;2022-11-02T05:33:59;13.50;99.90
38936;DHT22;25541;47.458;9.644;2022-11-02T05:36:25;13.50;99.90
38936;DHT22;25541;47.458;9.644;2022-11-02T05:38:52;13.50;99.90
38936;DHT22;25541;47.458;9.644;2022-11-02T05:41:18;13.40;99.90
38936;DHT22;25541;47.458;9.644;2022-11-02T05:43:44;13.50;99.90
38936;DHT22;25541;47.458;9.644;2022-11-02T05:46:09;13.50;99.90
38936;DHT22;25541;47.458;9.644;2022-11-02T05:48:35;13.50;99.90
38936;DHT22;25541;47.458;9.644;2022-11-02T05:51:03;13.50;99.90
38936;DHT22;25541;47.458;9.644;2022-11-02T05:53:29;13.40;99.90
38936;DHT22;25541;47.458;9.644;2022-11-02T05:55:57;13.40;99.90
38936;DHT22;25541;47.458;9.644;2022-11-02T05:58:23;13.40;99.90
38936;DHT22;25541;47.458;9.644;2022-11-02T06:00:50;13.40;99.90
38936;DHT22;25541;47.458;9.644;2022-11-02T06:03:15;13.50;99.90
38936;DHT22;25541;47.458;9.644;2022-11-02T06:05:42;13.50;99.80
38936;DHT22;25541;47.458;9.644;2022-11-02T06:08:08;13.50;99.20
38936;DHT22;25541;47.458;9.644;2022-11-02T06:10:34;13.50;98.40
38936;DHT22;25541;47.458;9.644;2022-11-02T06:13:01;13.50;97.70
38936;DHT22;25541;47.458;9.644;2022-11-02T06:15:28;13.50;98.00
38936;DHT22;25541;47.458;9.644;2022-11-02T06:17:54;13.50;97.00
38936;DHT22;25541;47.458;9.644;2022-11-02T06:20:21;13.50;96.30
38936;DHT22;25541;47.458;9.644;2022-11-02T06:22:47;13.30;96.30
38936;DHT22;25541;47.458;9.644;2022-11-02T06:25:12;13.30;96.60
38936;DHT22;25541;47.458;9.644;2022-11-02T06:27:39;13.30;97.10
38936;DHT22;25541;47.458;9.644;2022-11-02T06:30:07;13.40;97.60
38936;DHT22;25541;47.458;9.644;2022-11-02T06:32:33;13.40;97.40
38936;DHT22;25541;47.458;9.644;2022-11-02T06:34:59;13.40;96.80
38936;DHT22;25541;47.458;9.644;2022-11-02T06:37:25;13.40;97.40
38936;DHT22;25541;47.458;9.644;2022-11-02T06:39:50;13.50;97.20
38936;DHT22;25541;47.458;9.644;2022-11-02T06:42:16;13.50;97.20
38936;DHT22;25541;47.458;9.644;2022-11-02T06:44:42;13.60;97.20
38936;DHT22;25541;47.458;9.644;2022-11-02T06:47:07;13.60;97.70
38936;DHT22;25541;47.458;9.644;2022-11-02T06:49:33;13.70;96.80
38936;DHT22;25541;47.458;9.644;2022-11-02T06:51:59;13.70;97.00
38936;DHT22;25541;47.458;9.644;2022-11-02T06:54:25;13.70;96.90
38936;DHT22;25541;47.458;9.644;2022-11-02T06:56:50;13.80;96.50
38936;DHT22;25541;47.458;9.644;2022-11-02T06:59:16;13.70;96.10
38936;DHT22;25541;47.458;9.644;2022-11-02T07:01:42;13.80;96.30
38936;DHT22;25541;47.458;9.644;2022-11-02T07:04:07;13.80;95.70
38936;DHT22;25541;47.458;9.644;2022-11-02T07:06:33;13.80;95.10
38936;DHT22;25541;47.458;9.644;2022-11-02T07:08:59;13.80;95.20
38936;DHT22;25541;47.458;9.644;2022-11-02T07:11:24;13.80;95.80
38936;DHT22;25541;47.458;9.644;2022-11-02T07:13:50;13.90;95.40
38936;DHT22;25541;47.458;9.644;2022-11-02T07:16:16;13.90;95.40
38936;DHT22;25541;47.458;9.644;2022-11-02T07:18:41;14.00;94.90
38936;DHT22;25541;47.458;9.644;2022-11-02T07:21:07;14.00;94.70
38936;DHT22;25541;47.458;9.644;2022-11-02T07:23:35;14.00;94.40
38936;DHT22;25541;47.458;9.644;2022-11-02T07:26:01;14.10;94.60
38936;DHT22;25541;47.458;9.644;2022-11-02T07:28:27;14.00;94.00
38936;DHT22;25541;47.458;9.644;2022-11-02T07:30:53;14.10;93.90
38936;DHT22;25541;47.458;9.644;2022-11-02T07:33:20;14.10;93.90
38936;DHT22;25541;47.458;9.644;2022-11-02T07:35:45;14.10;93.50
38936;DHT22;25541;47.458;9.644;2022-11-02T07:38:11;14.20;93.50
38936;DHT22;25541;47.458;9.644;2022-11-02T07:40:37;14.30;93.40
38936;DHT22;25541;47.458;9.644;2022-11-02T07:43:04;14.20;93.40
38936;DHT22;25541;47.458;9.644;2022-11-02T07:45:30;14.20;93.50
38936;DHT22;25541;47.458;9.644;2022-11-02T07:47:56;14.20;93.60
38936;DHT22;25541;47.458;9.644;2022-11-02T07:50:23;14.20;93.10
38936;DHT22;25541;47.458;9.644;2022-11-02T07:52:51;14.20;93.20
38936;DHT22;25541;47.458;9.644;2022-11-02T07:55:19;14.20;93.70
38936;DHT22;25541;47.458;9.644;2022-11-02T07:57:56;14.20;93.20
38936;DHT22;25541;47.458;9.644;2022-11-02T08:00:23;14.10;93.80
38936;DHT22;25541;47.458;9.644;2022-11-02T08:02:53;14.10;93.60
38936;DHT22;25541;47.458;9.644;2022-11-02T08:05:20;14.10;93.30
38936;DHT22;25541;47.458;9.644;2022-11-02T08:07:45;14.10;94.10
38936;DHT22;25541;47.458;9.644;2022-11-02T08:10:11;14.10;92.80
38936;DHT22;25541;47.458;9.644;2022-11-02T08:12:37;14.10;92.70
38936;DHT22;25541;47.458;9.644;2022-11-02T08:15:03;14.10;93.30
38936;DHT22;25541;47.458;9.644;2022-11-02T08:17:29;14.20;93.00
38936;DHT22;25541;47.458;9.644;2022-11-02T08:19:55;14.20;92.80
38936;DHT22;25541;47.458;9.644;2022-11-02T08:22:20;14.20;92.90
38936;DHT22;25541;47.458;9.644;2022-11-02T08:24:46;14.20;91.90
38936;DHT22;25541;47.458;9.644;2022-11-02T08:27:12;14.20;92.80
38936;DHT22;25541;47.458;9.644;2022-11-02T08:29:37;14.20;92.90
38936;DHT22;25541;47.458;9.644;2022-11-02T08:32:03;14.20;92.90
38936;DHT22;25541;47.458;9.644;2022-11-02T08:34:29;14.30;92.40
38936;DHT22;25541;47.458;9.644;2022-11-02T08:36:54;14.20;92.60
38936;DHT22;25541;47.458;9.644;2022-11-02T08:39:20;14.20;91.90
38936;DHT22;25541;47.458;9.644;2022-11-02T08:41:46;14.20;91.80
38936;DHT22;25541;47.458;9.644;2022-11-02T08:44:11;14.20;92.30
38936;DHT22;25541;47.458;9.644;2022-11-02T08:46:37;14.30;92.00
38936;DHT22;25541;47.458;9.644;2022-11-02T08:49:03;14.30;92.20
38936;DHT22;25541;47.458;9.644;2022-11-02T08:51:28;14.20;92.00
38936;DHT22;25541;47.458;9.644;2022-11-02T08:53:54;14.10;92.70
38936;DHT22;25541;47.458;9.644;2022-11-02T08:56:19;14.10;93.00
38936;DHT22;25541;47.458;9.644;2022-11-02T08:58:45;14.20;92.30
38936;DHT22;25541;47.458;9.644;2022-11-02T09:01:11;14.20;92.80
38936;DHT22;25541;47.458;9.644;2022-11-02T09:03:36;14.10;92.70
38936;DHT22;25541;47.458;9.644;2022-11-02T09:06:02;14.10;92.70
38936;DHT22;25541;47.458;9.644;2022-11-02T09:08:29;14.00;93.00
38936;DHT22;25541;47.458;9.644;2022-11-02T09:10:58;14.10;93.40
38936;DHT22;25541;47.458;9.644;2022-11-02T09:13:24;14.20;92.50
38936;DHT22;25541;47.458;9.644;2022-11-02T09:15:52;14.20;92.40
38936;DHT22;25541;47.458;9.644;2022-11-02T09:18:18;14.40;92.50
38936;DHT22;25541;47.458;9.644;2022-11-02T09:20:44;14.50;92.40
38936;DHT22;25541;47.458;9.644;2022-11-02T09:23:11;14.50;92.50
38936;DHT22;25541;47.458;9.644;2022-11-02T09:25:38;14.60;92.50
38936;DHT22;25541;47.458;9.644;2022-11-02T09:28:04;14.60;92.40
38936;DHT22;25541;47.458;9.644;2022-11-02T09:30:29;14.80;92.50
38936;DHT22;25541;47.458;9.644;2022-11-02T09:33:03;14.90;91.80
38936;DHT22;25541;47.458;9.644;2022-11-02T09:35:43;15.00;92.00
38936;DHT22;25541;47.458;9.644;2022-11-02T09:38:10;15.00;91.50
38936;DHT22;25541;47.458;9.644;2022-11-02T09:46:22;15.50;91.40
38936;DHT22;25541;47.458;9.644;2022-11-02T09:48:56;15.60;91.20
38936;DHT22;25541;47.458;9.644;2022-11-02T09:56:29;15.90;90.40
38936;DHT22;25541;47.458;9.644;2022-11-02T09:59:19;16.00;90.70
38936;DHT22;25541;47.458;9.644;2022-11-02T10:01:59;16.10;89.20
38936;DHT22;25541;47.458;9.644;2022-11-02T10:16:01;16.30;88.40
38936;DHT22;25541;47.458;9.644;2022-11-02T10:18:33;16.40;88.30
38936;DHT22;25541;47.458;9.644;2022-11-02T10:21:08;16.50;85.30
38936;DHT22;25541;47.458;9.644;2022-11-02T10:23:36;16.50;87.70
38936;DHT22;25541;47.458;9.644;2022-11-02T10:26:03;16.50;87.60
38936;DHT22;25541;47.458;9.644;2022-11-02T10:28:31;16.60;87.60
38936;DHT22;25541;47.458;9.644;2022-11-02T10:30:59;16.60;87.50
38936;DHT22;25541;47.458;9.644;2022-11-02T10:33:27;16.40;85.40
38936;DHT22;25541;47.458;9.644;2022-11-02T10:52:50;16.20;87.50
38936;DHT22;25541;47.458;9.644;2022-11-02T10:55:25;16.00;86.80
38936;DHT22;25541;47.458;9.644;2022-11-02T10:57:54;15.90;87.50
38936;DHT22;25541;47.458;9.644;2022-11-02T11:00:34;15.80;89.00
38936;DHT22;25541;47.458;9.644;2022-11-02T11:03:12;15.80;90.30
38936;DHT22;25541;47.458;9.644;2022-11-02T11:06:02;15.90;90.40
38936;DHT22;25541;47.458;9.644;2022-11-02T11:08:42;16.00;89.80
38936;DHT22;25541;47.458;9.644;2022-11-02T11:11:30;16.00;89.00
38936;DHT22;25541;47.458;9.644;2022-11-02T11:14:06;16.00;89.10
38936;DHT22;25541;47.458;9.644;2022-11-02T11:16:46;16.00;89.10
38936;DHT22;25541;47.458;9.644;2022-11-02T11:19:40;16.00;89.00
38936;DHT22;25541;47.458;9.644;2022-11-02T11:22:40;16.00;89.20
38936;DHT22;25541;47.458;9.644;2022-11-02T11:27:48;16.10;90.10
38936;DHT22;25541;47.458;9.644;2022-11-02T11:32:52;16.20;90.50
38936;DHT22;25541;47.458;9.644;2022-11-02T11:35:18;16.30;90.40
38936;DHT22;25541;47.458;9.644;2022-11-02T11:37:57;16.40;89.40
38936;DHT22;25541;47.458;9.644;2022-11-02T11:40:26;16.50;89.70
38936;DHT22;25541;47.458;9.644;2022-11-02T11:42:56;16.50;85.80
38936;DHT22;25541;47.458;9.644;2022-11-02T11:45:27;16.50;86.20
38936;DHT22;25541;47.458;9.644;2022-11-02T11:48:34;16.50;85.20
38936;DHT22;25541;47.458;9.644;2022-11-02T11:50:52;16.50;85.30
38936;DHT22;25541;47.458;9.644;2022-11-02T11:53:25;16.60;84.80
38936;DHT22;25541;47.458;9.644;2022-11-02T11:55:53;16.60;85.00
38936;DHT22;25541;47.458;9.644;2022-11-02T11:58:26;16.70;84.50
38936;DHT22;25541;47.458;9.644;2022-11-02T12:03:58;16.70;84.70
38936;DHT22;25541;47.458;9.644;2022-11-02T12:17:46;16.70;81.00
38936;DHT22;25541;47.458;9.644;2022-11-02T12:31:32;17.00;79.10
38936;DHT22;25541;47.458;9.644;2022-11-02T12:42:30;16.90;77.60
38936;DHT22;25541;47.458;9.644;2022-11-02T12:47:51;16.80;77.50
38936;DHT22;25541;47.458;9.644;2022-11-02T12:56:07;17.00;77.30
38936;DHT22;25541;47.458;9.644;2022-11-02T12:58:38;17.00;77.50
38936;DHT22;25541;47.458;9.644;2022-11-02T13:01:10;17.00;76.30
38936;DHT22;25541;47.458;9.644;2022-11-02T13:06:18;17.00;76.10
38936;DHT22;25541;47.458;9.644;2022-11-02T13:08:57;17.10;76.10
38936;DHT22;25541;47.458;9.644;2022-11-02T13:11:40;17.10;75.10
38936;DHT22;25541;47.458;9.644;2022-11-02T13:14:15;17.10;76.10
38936;DHT22;25541;47.458;9.644;2022-11-02T13:17:13;17.10;75.60
38936;DHT22;25541;47.458;9.644;2022-11-02T13:20:08;17.10;75.90
38936;DHT22;25541;47.458;9.644;2022-11-02T13:22:37;17.10;74.80
38936;DHT22;25541;47.458;9.644;2022-11-02T13:25:35;17.00;74.90
38936;DHT22;25541;47.458;9.644;2022-11-02T13:28:18;17.10;74.90
38936;DHT22;25541;47.458;9.644;2022-11-02T13:30:46;17.20;73.90
38936;DHT22;25541;47.458;9.644;2022-11-02T13:33:35;17.20;74.80
38936;DHT22;25541;47.458;9.644;2022-11-02T13:36:02;17.20;73.30
38936;DHT22;25541;47.458;9.644;2022-11-02T13:38:52;17.30;74.30
38936;DHT22;25541;47.458;9.644;2022-11-02T13:49:49;17.50;71.50
38936;DHT22;25541;47.458;9.644;2022-11-02T13:52:20;17.50;70.70
38936;DHT22;25541;47.458;9.644;2022-11-02T13:54:52;17.40;70.40
38936;DHT22;25541;47.458;9.644;2022-11-02T14:00:01;17.10;71.70
38936;DHT22;25541;47.458;9.644;2022-11-02T14:02:32;16.90;72.10
38936;DHT22;25541;47.458;9.644;2022-11-02T14:04:59;16.80;73.30
38936;DHT22;25541;47.458;9.644;2022-11-02T14:07:34;16.70;73.20
38936;DHT22;25541;47.458;9.644;2022-11-02T14:10:16;16.70;73.70
38936;DHT22;25541;47.458;9.644;2022-11-02T14:12:44;16.70;73.00
38936;DHT22;25541;47.458;9.644;2022-11-02T14:20:42;17.10;72.90
38936;DHT22;25541;47.458;9.644;2022-11-02T14:25:47;17.20;70.90
38936;DHT22;25541;47.458;9.644;2022-11-02T14:33:43;17.20;70.50
38936;DHT22;25541;47.458;9.644;2022-11-02T14:46:52;17.20;71.90
38936;DHT22;25541;47.458;9.644;2022-11-02T14:49:25;17.20;73.80
38936;DHT22;25541;47.458;9.644;2022-11-02T14:52:27;17.10;74.60
38936;DHT22;25541;47.458;9.644;2022-11-02T14:55:07;17.00;76.30
38936;DHT22;25541;47.458;9.644;2022-11-02T14:57:34;16.90;76.30
38936;DHT22;25541;47.458;9.644;2022-11-02T15:00:16;16.70;77.00
38936;DHT22;25541;47.458;9.644;2022-11-02T15:02:43;16.70;76.50
38936;DHT22;25541;47.458;9.644;2022-11-02T15:05:23;16.60;76.80
38936;DHT22;25541;47.458;9.644;2022-11-02T15:08:00;16.50;77.10
38936;DHT22;25541;47.458;9.644;2022-11-02T15:15:43;16.10;77.80
38936;DHT22;25541;47.458;9.644;2022-11-02T15:26:53;15.60;79.80
38936;DHT22;25541;47.458;9.644;2022-11-02T15:29:36;15.50;80.40
38936;DHT22;25541;47.458;9.644;2022-11-02T15:32:10;15.40;80.90
38936;DHT22;25541;47.458;9.644;2022-11-02T15:34:47;15.30;81.50
38936;DHT22;25541;47.458;9.644;2022-11-02T15:37:24;15.20;82.00
38936;DHT22;25541;47.458;9.644;2022-11-02T15:39:58;15.10;81.80
38936;DHT22;25541;47.458;9.644;2022-11-02T16:01:37;14.30;85.50
38936;DHT22;25541;47.458;9.644;2022-11-02T16:04:05;14.20;86.20
38936;DHT22;25541;47.458;9.644;2022-11-02T16:06:51;14.10;86.80
38936;DHT22;25541;47.458;9.644;2022-11-02T16:09:30;14.00;87.00
38936;DHT22;25541;47.458;9.644;2022-11-02T16:12:16;13.90;87.70
38936;DHT22;25541;47.458;9.644;2022-11-02T16:15:12;13.80;88.00
38936;DHT22;25541;47.458;9.644;2022-11-02T16:17:38;13.70;88.90
38936;DHT22;25541;47.458;9.644;2022-11-02T16:20:17;13.60;89.30
38936;DHT22;25541;47.458;9.644;2022-11-02T16:23:02;13.50;90.10
38936;DHT22;25541;47.458;9.644;2022-11-02T16:25:35;13.40;90.20
38936;DHT22;25541;47.458;9.644;2022-11-02T16:30:36;13.20;90.60
38936;DHT22;25541;47.458;9.644;2022-11-02T16:33:03;13.10;91.00
38936;DHT22;25541;47.458;9.644;2022-11-02T16:35:30;13.10;90.70
38936;DHT22;25541;47.458;9.644;2022-11-02T16:37:56;13.00;90.50
38936;DHT22;25541;47.458;9.644;2022-11-02T16:40:21;12.90;90.70
38936;DHT22;25541;47.458;9.644;2022-11-02T16:42:51;12.80;90.90
38936;DHT22;25541;47.458;9.644;2022-11-02T16:45:35;12.80;90.60
38936;DHT22;25541;47.458;9.644;2022-11-02T16:48:01;12.70;90.90
38936;DHT22;25541;47.458;9.644;2022-11-02T16:50:28;12.70;91.20
38936;DHT22;25541;47.458;9.644;2022-11-02T16:52:59;12.60;91.30
38936;DHT22;25541;47.458;9.644;2022-11-02T16:55:42;12.50;91.30
38936;DHT22;25541;47.458;9.644;2022-11-02T16:58:15;12.40;91.50
38936;DHT22;25541;47.458;9.644;2022-11-02T17:01:00;12.40;91.90
38936;DHT22;25541;47.458;9.644;2022-11-02T17:03:30;12.40;92.20
38936;DHT22;25541;47.458;9.644;2022-11-02T17:06:00;12.30;92.40
38936;DHT22;25541;47.458;9.644;2022-11-02T17:08:28;12.20;92.60
38936;DHT22;25541;47.458;9.644;2022-11-02T17:10:57;12.10;92.80
38936;DHT22;25541;47.458;9.644;2022-11-02T17:13:23;12.10;92.70
38936;DHT22;25541;47.458;9.644;2022-11-02T17:15:52;12.10;92.70
38936;DHT22;25541;47.458;9.644;2022-11-02T17:20:48;12.00;92.80
38936;DHT22;25541;47.458;9.644;2022-11-02T17:23:35;12.00;93.10
38936;DHT22;25541;47.458;9.644;2022-11-02T17:28:59;11.90;93.30
38936;DHT22;25541;47.458;9.644;2022-11-02T17:31:33;11.80;93.10
38936;DHT22;25541;47.458;9.644;2022-11-02T17:34:06;11.80;93.50
38936;DHT22;25541;47.458;9.644;2022-11-02T17:36:43;11.70;93.30
38936;DHT22;25541;47.458;9.644;2022-11-02T17:39:15;11.70;93.70
38936;DHT22;25541;47.458;9.644;2022-11-02T17:41:42;11.60;94.00
38936;DHT22;25541;47.458;9.644;2022-11-02T17:44:27;11.60;94.40
38936;DHT22;25541;47.458;9.644;2022-11-02T17:46:54;11.50;94.30
38936;DHT22;25541;47.458;9.644;2022-11-02T17:49:19;11.50;94.40
38936;DHT22;25541;47.458;9.644;2022-11-02T17:51:46;11.50;94.40
38936;DHT22;25541;47.458;9.644;2022-11-02T17:54:12;11.40;94.50
38936;DHT22;25541;47.458;9.644;2022-11-02T17:56:39;11.40;94.90
38936;DHT22;25541;47.458;9.644;2022-11-02T17:59:04;11.40;94.80
38936;DHT22;25541;47.458;9.644;2022-11-02T18:01:30;11.30;95.30
38936;DHT22;25541;47.458;9.644;2022-11-02T18:03:56;11.30;95.10
38936;DHT22;25541;47.458;9.644;2022-11-02T18:06:22;11.30;95.10
38936;DHT22;25541;47.458;9.644;2022-11-02T18:08:47;11.20;94.90
38936;DHT22;25541;47.458;9.644;2022-11-02T18:11:32;11.10;95.70
38936;DHT22;25541;47.458;9.644;2022-11-02T18:13:57;11.10;95.80
38936;DHT22;25541;47.458;9.644;2022-11-02T18:16:23;11.10;96.30
38936;DHT22;25541;47.458;9.644;2022-11-02T18:18:49;11.00;96.40
38936;DHT22;25541;47.458;9.644;2022-11-02T18:21:14;11.00;96.60
38936;DHT22;25541;47.458;9.644;2022-11-02T18:23:40;10.90;96.90
38936;DHT22;25541;47.458;9.644;2022-11-02T18:26:10;10.90;96.90
38936;DHT22;25541;47.458;9.644;2022-11-02T18:28:36;10.90;97.30
38936;DHT22;25541;47.458;9.644;2022-11-02T18:31:04;10.90;98.20
38936;DHT22;25541;47.458;9.644;2022-11-02T18:33:30;10.80;98.80
38936;DHT22;25541;47.458;9.644;2022-11-02T18:36:07;10.80;99.00
38936;DHT22;25541;47.458;9.644;2022-11-02T18:38:33;10.70;99.00
38936;DHT22;25541;47.458;9.644;2022-11-02T18:41:06;10.60;98.80
38936;DHT22;25541;47.458;9.644;2022-11-02T18:43:52;10.60;99.10
38936;DHT22;25541;47.458;9.644;2022-11-02T18:46:18;10.60;99.40
38936;DHT22;25541;47.458;9.644;2022-11-02T18:48:44;10.60;99.50
38936;DHT22;25541;47.458;9.644;2022-11-02T18:51:10;10.60;99.90
38936;DHT22;25541;47.458;9.644;2022-11-02T18:53:36;10.60;99.90
38936;DHT22;25541;47.458;9.644;2022-11-02T18:56:07;10.70;99.90
38936;DHT22;25541;47.458;9.644;2022-11-02T18:58:33;10.60;99.90
38936;DHT22;25541;47.458;9.644;2022-11-02T19:01:09;10.60;99.90
38936;DHT22;25541;47.458;9.644;2022-11-02T19:03:36;10.60;99.90
38936;DHT22;25541;47.458;9.644;2022-11-02T19:06:03;10.60;99.90
38936;DHT22;25541;47.458;9.644;2022-11-02T19:08:47;10.60;99.90
38936;DHT22;25541;47.458;9.644;2022-11-02T19:11:32;10.60;99.90
38936;DHT22;25541;47.458;9.644;2022-11-02T19:13:58;10.50;99.90
38936;DHT22;25541;47.458;9.644;2022-11-02T19:16:24;10.40;99.90
38936;DHT22;25541;47.458;9.644;2022-11-02T19:18:49;10.40;99.90
38936;DHT22;25541;47.458;9.644;2022-11-02T19:21:15;10.40;99.90
38936;DHT22;25541;47.458;9.644;2022-11-02T19:23:41;10.40;99.90
38936;DHT22;25541;47.458;9.644;2022-11-02T19:26:06;10.30;99.90
38936;DHT22;25541;47.458;9.644;2022-11-02T19:28:32;10.30;99.90
38936;DHT22;25541;47.458;9.644;2022-11-02T19:31:07;10.30;99.90
38936;DHT22;25541;47.458;9.644;2022-11-02T19:33:33;10.30;99.90
38936;DHT22;25541;47.458;9.644;2022-11-02T19:35:59;10.30;99.90
38936;DHT22;25541;47.458;9.644;2022-11-02T19:38:25;10.30;99.90
38936;DHT22;25541;47.458;9.644;2022-11-02T19:41:01;10.30;99.90
38936;DHT22;25541;47.458;9.644;2022-11-02T19:43:26;10.30;99.90
38936;DHT22;25541;47.458;9.644;2022-11-02T19:45:52;10.30;99.90
38936;DHT22;25541;47.458;9.644;2022-11-02T19:48:22;10.30;99.90
38936;DHT22;25541;47.458;9.644;2022-11-02T19:50:48;10.30;99.90
38936;DHT22;25541;47.458;9.644;2022-11-02T19:53:14;10.20;99.90
38936;DHT22;25541;47.458;9.644;2022-11-02T19:55:39;10.20;99.90
38936;DHT22;25541;47.458;9.644;2022-11-02T19:58:05;10.10;99.90
38936;DHT22;25541;47.458;9.644;2022-11-02T20:00:31;10.10;99.90
38936;DHT22;25541;47.458;9.644;2022-11-02T20:02:57;10.10;99.90
38936;DHT22;25541;47.458;9.644;2022-11-02T20:05:23;10.10;99.90
38936;DHT22;25541;47.458;9.644;2022-11-02T20:07:50;10.10;99.90
38936;DHT22;25541;47.458;9.644;2022-11-02T20:10:15;10.10;99.90
38936;DHT22;25541;47.458;9.644;2022-11-02T20:12:44;10.10;99.90
38936;DHT22;25541;47.458;9.644;2022-11-02T20:15:10;10.10;99.90
38936;DHT22;25541;47.458;9.644;2022-11-02T20:17:36;10.00;99.90
38936;DHT22;25541;47.458;9.644;2022-11-02T20:20:02;10.00;99.90
38936;DHT22;25541;47.458;9.644;2022-11-02T20:22:28;10.00;99.90
38936;DHT22;25541;47.458;9.644;2022-11-02T20:24:54;10.00;99.90
38936;DHT22;25541;47.458;9.644;2022-11-02T20:27:19;10.00;99.90
38936;DHT22;25541;47.458;9.644;2022-11-02T20:29:45;10.00;99.90
38936;DHT22;25541;47.458;9.644;2022-11-02T20:32:10;10.00;99.90
38936;DHT22;25541;47.458;9.644;2022-11-02T20:34:37;10.00;99.90
38936;DHT22;25541;47.458;9.644;2022-11-02T20:37:02;10.00;99.90
38936;DHT22;25541;47.458;9.644;2022-11-02T20:39:29;10.00;99.90
38936;DHT22;25541;47.458;9.644;2022-11-02T20:41:55;10.00;99.90
38936;DHT22;25541;47.458;9.644;2022-11-02T20:44:21;10.10;99.90
38936;DHT22;25541;47.458;9.644;2022-11-02T20:46:48;10.10;99.90
38936;DHT22;25541;47.458;9.644;2022-11-02T20:49:14;10.00;99.90
38936;DHT22;25541;47.458;9.644;2022-11-02T20:51:40;10.00;99.90
38936;DHT22;25541;47.458;9.644;2022-11-02T20:54:05;10.00;99.90
38936;DHT22;25541;47.458;9.644;2022-11-02T20:56:33;10.00;99.90
38936;DHT22;25541;47.458;9.644;2022-11-02T20:58:58;10.00;99.90
38936;DHT22;25541;47.458;9.644;2022-11-02T21:01:24;10.00;99.90
38936;DHT22;25541;47.458;9.644;2022-11-02T21:03:50;10.00;99.90
38936;DHT22;25541;47.458;9.644;2022-11-02T21:06:15;10.00;99.90
38936;DHT22;25541;47.458;9.644;2022-11-02T21:08:41;10.00;99.90
38936;DHT22;25541;47.458;9.644;2022-11-02T21:11:09;10.00;99.90
38936;DHT22;25541;47.458;9.644;2022-11-02T21:13:53;10.00;99.90
38936;DHT22;25541;47.458;9.644;2022-11-02T21:16:20;10.00;99.90
38936;DHT22;25541;47.458;9.644;2022-11-02T21:18:46;10.00;99.90
38936;DHT22;25541;47.458;9.644;2022-11-02T21:21:17;9.90;99.90
38936;DHT22;25541;47.458;9.644;2022-11-02T21:23:44;9.90;99.90
38936;DHT22;25541;47.458;9.644;2022-11-02T21:26:12;9.90;99.90
38936;DHT22;25541;47.458;9.644;2022-11-02T21:28:39;9.90;99.90
38936;DHT22;25541;47.458;9.644;2022-11-02T21:31:13;9.90;99.90
38936;DHT22;25541;47.458;9.644;2022-11-02T21:33:41;9.90;99.90
38936;DHT22;25541;47.458;9.644;2022-11-02T21:36:07;9.90;99.90
38936;DHT22;25541;47.458;9.644;2022-11-02T21:38:33;9.80;99.90
38936;DHT22;25541;47.458;9.644;2022-11-02T21:41:01;9.90;99.90
38936;DHT22;25541;47.458;9.644;2022-11-02T21:43:28;9.90;99.90
38936;DHT22;25541;47.458;9.644;2022-11-02T21:45:56;9.90;99.90
38936;DHT22;25541;47.458;9.644;2022-11-02T21:48:23;9.90;99.90
38936;DHT22;25541;47.458;9.644;2022-11-02T21:51:06;10.00;99.90
38936;DHT22;25541;47.458;9.644;2022-11-02T21:53:33;10.00;99.90
38936;DHT22;25541;47.458;9.644;2022-11-02T21:58:29;9.90;99.90
38936;DHT22;25541;47.458;9.644;2022-11-02T22:01:03;9.90;99.90
38936;DHT22;25541;47.458;9.644;2022-11-02T22:03:48;9.90;99.90
38936;DHT22;25541;47.458;9.644;2022-11-02T22:06:14;9.70;99.90
38936;DHT22;25541;47.458;9.644;2022-11-02T22:08:40;9.70;99.90
38936;DHT22;25541;47.458;9.644;2022-11-02T22:11:11;9.60;99.90
38936;DHT22;25541;47.458;9.644;2022-11-02T22:13:39;9.50;99.90
38936;DHT22;25541;47.458;9.644;2022-11-02T22:16:18;9.50;99.90
38936;DHT22;25541;47.458;9.644;2022-11-02T22:18:48;9.40;99.90
38936;DHT22;25541;47.458;9.644;2022-11-02T22:21:15;9.40;99.90
38936;DHT22;25541;47.458;9.644;2022-11-02T22:23:43;9.30;99.90
38936;DHT22;25541;47.458;9.644;2022-11-02T22:26:12;9.30;99.90